Time;durP1;ratioP1;P1;durP2;ratioP2;P2;SDS_P1;SDS_P2;PMS_P1;PMS_P2;Temp;Humidity;BMP_temperature;BMP_pressure;BME280_temperature;BME280_humidity;BME280_pressure;Samples;Min_cycle;Max_cycle;Signal;HPM_P1;HPM_P2
2021/05/18 00:01:29;;;;;;;12.15;10.80;;;17.90;81.40;;;;;;5154941;27;20367;-71
2021/05/18 00:03:55;;;;;;;13.90;11.20;;;17.80;81.40;;;;;;5154889;27;20097;-72
2021/05/18 00:06:21;;;;;;;11.80;10.60;;;17.70;81.70;;;;;;5155083;27;20045;-72
2021/05/18 00:11:43;;;;;;;11.50;9.75;;;17.60;82.10;;;;;;5155434;27;20045;-71
2021/05/18 00:14:18;;;;;;;13.32;10.55;;;17.50;82.30;;;;;;5155006;27;20035;-71
2021/05/18 00:16:44;;;;;;;12.73;10.07;;;17.50;82.60;;;;;;5155084;27;20030;-70
2021/05/18 00:19:10;;;;;;;15.38;10.10;;;17.50;82.70;;;;;;5155216;27;20022;-70
2021/05/18 00:21:37;;;;;;;10.35;9.30;;;17.40;82.80;;;;;;5154995;27;20195;-70
2021/05/18 00:24:03;;;;;;;10.60;9.27;;;17.40;82.90;;;;;;5154649;27;20460;-70
2021/05/18 00:26:29;;;;;;;9.73;8.68;;;17.40;83.00;;;;;;5136316;27;20029;-70
2021/05/18 00:28:54;;;;;;;12.48;10.05;;;17.40;83.00;;;;;;5155152;27;20031;-71
2021/05/18 00:31:20;;;;;;;11.52;9.60;;;17.40;83.00;;;;;;5154885;27;20022;-70
2021/05/18 00:33:46;;;;;;;10.65;9.25;;;17.40;83.10;;;;;;5154527;27;20035;-70
2021/05/18 00:36:13;;;;;;;11.57;9.95;;;17.50;83.10;;;;;;5154781;27;20074;-71
2021/05/18 00:38:42;;;;;;;11.80;10.60;;;17.50;83.10;;;;;;5136314;27;20115;-70
2021/05/18 00:41:10;;;;;;;11.90;9.75;;;17.50;83.10;;;;;;5154839;27;20027;-70
2021/05/18 00:43:39;;;;;;;12.90;10.30;;;17.50;83.10;;;;;;5154780;27;20109;-70
2021/05/18 00:46:06;;;;;;;10.43;9.38;;;17.50;83.10;;;;;;5154822;27;20023;-70
2021/05/18 00:48:32;;;;;;;11.38;9.68;;;17.50;83.10;;;;;;5154899;27;20039;-71
2021/05/18 00:51:07;;;;;;;12.13;9.75;;;17.50;83.10;;;;;;5154982;27;20030;-71
2021/05/18 00:53:34;;;;;;;11.85;10.40;;;17.40;83.10;;;;;;5154657;27;20129;-71
2021/05/18 00:56:06;;;;;;;10.43;9.25;;;17.40;83.00;;;;;;5154624;27;20030;-71
2021/05/18 00:58:39;;;;;;;12.13;10.85;;;17.40;83.00;;;;;;5154544;27;20038;-70
2021/05/18 01:01:10;;;;;;;14.07;11.63;;;17.40;83.00;;;;;;5154696;27;20027;-71
2021/05/18 01:03:37;;;;;;;17.17;13.10;;;17.40;83.00;;;;;;5154645;27;20023;-70
2021/05/18 01:08:56;;;;;;;14.50;12.27;;;17.30;83.00;;;;;;5158666;27;20034;-71
2021/05/18 01:11:24;;;;;;;12.52;11.27;;;17.30;83.00;;;;;;5157957;27;20029;-70
2021/05/18 01:13:56;;;;;;;16.02;10.95;;;17.30;83.30;;;;;;5157922;27;20487;-70
2021/05/18 01:16:22;;;;;;;11.38;10.05;;;17.20;83.40;;;;;;5158004;27;20031;-70
2021/05/18 01:18:48;;;;;;;12.63;9.98;;;17.20;83.60;;;;;;5157707;27;20030;-71
2021/05/18 01:21:14;;;;;;;14.20;11.05;;;17.30;83.90;;;;;;5157906;27;20027;-70
2021/05/18 01:23:41;;;;;;;12.23;10.13;;;17.20;84.00;;;;;;5158088;27;20025;-70
2021/05/18 01:26:07;;;;;;;12.63;10.93;;;17.30;84.10;;;;;;5157695;27;20030;-70
2021/05/18 01:28:34;;;;;;;13.60;11.25;;;17.30;84.10;;;;;;5157717;27;20043;-70
2021/05/18 01:31:02;;;;;;;16.48;12.93;;;17.30;84.10;;;;;;5157716;27;20371;-71
2021/05/18 01:33:28;;;;;;;20.58;13.35;;;17.30;84.10;;;;;;5157639;27;20098;-70
2021/05/18 01:35:59;;;;;;;19.48;15.45;;;17.30;84.10;;;;;;5157743;27;20019;-70
2021/05/18 01:38:37;;;;;;;24.63;17.45;;;17.30;84.20;;;;;;5157667;27;20038;-70
2021/05/18 01:43:52;;;;;;;23.23;17.27;;;17.20;84.10;;;;;;5157907;27;20126;-71
2021/05/18 01:46:20;;;;;;;27.35;17.30;;;17.20;84.20;;;;;;5157110;27;20045;-71
2021/05/18 01:48:58;;;;;;;23.20;18.20;;;17.10;84.30;;;;;;5157413;27;20022;-71
2021/05/18 01:51:52;;;;;;;26.23;19.40;;;17.10;84.60;;;;;;5157461;27;20083;-70
2021/05/18 01:54:26;;;;;;;23.30;18.00;;;17.00;84.50;;;;;;5157417;27;20038;-70
2021/05/18 01:59:22;;;;;;;20.52;16.83;;;17.00;84.80;;;;;;5157357;27;20019;-71
2021/05/18 02:01:50;;;;;;;21.42;16.30;;;17.00;85.00;;;;;;5157764;27;20030;-71
2021/05/18 02:04:26;;;;;;;21.50;16.10;;;16.90;85.00;;;;;;5157656;27;20062;-71
2021/05/18 02:06:53;;;;;;;20.20;17.30;;;16.90;85.10;;;;;;5156967;27;20027;-71
2021/05/18 02:09:19;;;;;;;25.83;19.27;;;16.90;85.10;;;;;;5157013;27;20031;-71
2021/05/18 02:11:45;;;;;;;23.20;16.63;;;16.90;85.30;;;;;;5157034;27;20464;-71
2021/05/18 02:14:19;;;;;;;18.50;14.43;;;16.90;85.50;;;;;;5156692;27;20023;-71
2021/05/18 02:16:45;;;;;;;13.07;10.70;;;16.90;85.50;;;;;;5156903;27;20035;-71
2021/05/18 02:19:37;;;;;;;19.48;12.43;;;16.90;85.50;;;;;;5156095;27;20034;-71
2021/05/18 02:22:17;;;;;;;16.17;12.15;;;16.90;85.60;;;;;;5142352;27;20027;-71
2021/05/18 02:24:47;;;;;;;16.70;15.02;;;16.80;85.50;;;;;;5156759;27;20027;-71
2021/05/18 02:27:13;;;;;;;12.18;10.98;;;16.80;85.80;;;;;;5157045;27;20031;-71
2021/05/18 02:29:39;;;;;;;13.77;9.43;;;16.90;86.10;;;;;;5156851;27;20495;-71
2021/05/18 02:32:05;;;;;;;8.75;7.80;;;16.90;86.10;;;;;;5156694;27;20030;-71
2021/05/18 02:34:32;;;;;;;14.65;11.52;;;17.00;86.10;;;;;;5156827;27;20019;-71
2021/05/18 02:37:00;;;;;;;12.63;11.27;;;17.00;86.00;;;;;;5156804;27;20099;-71
2021/05/18 02:39:26;;;;;;;14.75;11.63;;;17.00;86.10;;;;;;5156560;27;20050;-71
2021/05/18 02:41:52;;;;;;;20.23;14.40;;;17.10;86.00;;;;;;5156634;27;20072;-71
2021/05/18 02:44:28;;;;;;;18.65;13.43;;;17.10;85.80;;;;;;5156713;27;20037;-71
2021/05/18 02:49:38;;;;;;;18.30;16.27;;;17.20;85.40;;;;;;5156579;27;20478;-71
2021/05/18 02:52:03;;;;;;;21.02;16.98;;;17.20;85.30;;;;;;5155976;27;20282;-72
2021/05/18 02:54:29;;;;;;;19.35;15.40;;;17.20;85.20;;;;;;5137620;27;20023;-72
2021/05/18 02:56:59;;;;;;;18.98;15.48;;;17.20;85.10;;;;;;5156417;27;20030;-72
2021/05/18 02:59:25;;;;;;;22.13;15.32;;;17.20;85.00;;;;;;5155964;27;20022;-72
2021/05/18 03:01:59;;;;;;;16.70;13.93;;;17.30;85.10;;;;;;5156054;27;20031;-72
2021/05/18 03:04:27;;;;;;;18.58;13.50;;;17.30;85.00;;;;;;5156530;27;20026;-72
2021/05/18 03:06:53;;;;;;;20.27;14.73;;;17.30;84.90;;;;;;5155846;27;20038;-71
2021/05/18 03:09:21;;;;;;;15.43;12.70;;;17.30;84.70;;;;;;5155918;27;20038;-72
2021/05/18 03:11:48;;;;;;;17.27;13.00;;;17.30;84.50;;;;;;5155804;27;20040;-70
2021/05/18 03:14:15;;;;;;;17.08;12.57;;;17.30;84.30;;;;;;5156071;27;20022;-72
2021/05/18 03:16:42;;;;;;;15.63;11.30;;;17.30;84.30;;;;;;5155732;27;20033;-70
2021/05/18 03:19:10;;;;;;;15.00;12.88;;;17.30;84.50;;;;;;5137779;27;20023;-70
2021/05/18 03:21:37;;;;;;;17.67;13.30;;;17.30;84.60;;;;;;5156199;27;20105;-72
2021/05/18 03:24:04;;;;;;;14.95;11.98;;;17.30;84.70;;;;;;5155797;27;20432;-72
2021/05/18 03:26:30;;;;;;;13.48;11.25;;;17.30;84.70;;;;;;5155184;27;20031;-71
2021/05/18 03:28:59;;;;;;;17.13;12.52;;;17.30;84.70;;;;;;5155080;27;20049;-71
2021/05/18 03:36:56;;;;;;;16.50;12.88;;;17.30;84.80;;;;;;5155826;27;20539;-70
2021/05/18 03:39:22;;;;;;;17.27;13.65;;;17.30;84.70;;;;;;5155346;27;20106;-71
2021/05/18 03:44:51;;;;;;;15.73;12.52;;;17.20;84.70;;;;;;5155424;27;20049;-71
2021/05/18 03:52:49;;;;;;;16.88;13.68;;;17.20;85.10;;;;;;5155587;27;20041;-70
2021/05/18 04:04:13;;;;;;;17.42;13.32;;;17.20;85.50;;;;;;5139839;27;20030;-70
2021/05/18 04:17:22;;;;;;;17.70;13.23;;;17.30;86.00;;;;;;5155380;27;20041;-72
2021/05/18 04:19:59;;;;;;;19.70;12.80;;;17.30;85.90;;;;;;5154985;27;20380;-72
2021/05/18 04:22:54;;;;;;;16.55;11.82;;;17.30;86.00;;;;;;5154918;27;20033;-72
2021/05/18 04:52:11;;;;;;;19.23;11.93;;;17.70;85.40;;;;;;5158487;27;20026;-71
2021/05/18 05:00:06;;;;;;;19.27;13.27;;;17.80;85.20;;;;;;5158205;27;20034;-71
2021/05/18 05:08:04;;;;;;;16.33;14.07;;;17.90;85.40;;;;;;5158081;27;20087;-70
2021/05/18 05:15:38;;;;;;;14.32;11.93;;;18.20;84.80;;;;;;5158350;27;20479;-72
2021/05/18 05:18:05;;;;;;;17.73;13.13;;;18.20;84.40;;;;;;5158059;27;20035;-71
2021/05/18 05:20:31;;;;;;;16.85;12.93;;;18.30;84.20;;;;;;5157987;27;20041;-71
2021/05/18 05:22:57;;;;;;;15.40;12.45;;;18.30;84.00;;;;;;5157873;27;20034;-72
2021/05/18 05:25:23;;;;;;;18.48;12.77;;;18.40;83.90;;;;;;5157915;27;20026;-72
2021/05/18 05:27:50;;;;;;;13.73;10.93;;;18.50;84.30;;;;;;5158023;27;20018;-72
2021/05/18 05:30:16;;;;;;;15.75;11.65;;;18.60;83.00;;;;;;5157512;27;20117;-72
2021/05/18 05:32:41;;;;;;;18.52;12.25;;;18.70;82.50;;;;;;5157986;27;20038;-71
2021/05/18 05:35:08;;;;;;;20.67;12.95;;;18.70;82.10;;;;;;5139042;27;20023;-71
2021/05/18 05:37:33;;;;;;;23.77;15.25;;;18.70;81.90;;;;;;5157462;27;20075;-73
2021/05/18 05:39:59;;;;;;;25.20;15.57;;;18.70;82.00;;;;;;5157615;27;20023;-70
2021/05/18 05:42:25;;;;;;;21.77;14.43;;;18.70;82.00;;;;;;5157628;27;20027;-71
2021/05/18 05:44:51;;;;;;;82.72;40.35;;;18.70;81.80;;;;;;5157473;27;20022;-71
2021/05/18 05:47:18;;;;;;;43.72;23.02;;;18.70;81.20;;;;;;5156979;27;20030;-71
2021/05/18 05:49:43;;;;;;;44.72;22.70;;;18.80;81.20;;;;;;5157265;27;20034;-71
2021/05/18 05:52:18;;;;;;;68.07;32.15;;;18.90;81.40;;;;;;5156172;27;20533;-72
2021/05/18 05:54:44;;;;;;;75.78;37.33;;;19.00;81.10;;;;;;5157262;27;20031;-71
2021/05/18 05:57:10;;;;;;;78.78;37.28;;;19.20;80.70;;;;;;5157433;27;20044;-71
2021/05/18 05:59:35;;;;;;;82.28;38.50;;;19.40;80.10;;;;;;5157723;27;20029;-71
2021/05/18 06:02:03;;;;;;;77.10;35.97;;;19.50;79.70;;;;;;5157457;27;20031;-71
2021/05/18 06:04:29;;;;;;;77.20;37.33;;;19.70;79.10;;;;;;5157156;27;20018;-71
2021/05/18 06:06:55;;;;;;;71.50;36.08;;;19.80;78.70;;;;;;5157107;27;20098;-71
2021/05/18 06:09:22;;;;;;;81.43;42.70;;;20.00;78.00;;;;;;5157065;27;20023;-72
2021/05/18 06:14:46;;;;;;;70.25;37.78;;;20.10;76.90;;;;;;5157036;27;20022;-71
2021/05/18 06:47:33;;;;;;;24.27;18.08;;;20.90;73.90;;;;;;5156300;27;20396;-70
2021/05/18 06:50:34;;;;;;;22.58;16.70;;;21.00;73.80;;;;;;5137734;27;20087;-71
2021/05/18 06:52:53;;;;;;;28.25;19.02;;;21.10;73.20;;;;;;5151725;27;20037;-70
2021/05/18 06:55:23;;;;;;;24.48;20.60;;;21.30;72.80;;;;;;5156090;27;20023;-71
2021/05/18 06:57:51;;;;;;;24.63;16.98;;;21.50;72.40;;;;;;5156159;27;20030;-72
2021/05/18 07:00:19;;;;;;;33.45;19.75;;;21.60;71.90;;;;;;5155771;27;20470;-74
2021/05/18 07:02:45;;;;;;;33.38;20.65;;;21.70;71.30;;;;;;5156616;27;20402;-72
2021/05/18 07:06:09;;;;;;;25.75;17.00;;;21.90;71.00;;;;;;5156125;27;20437;-72
2021/05/18 07:08:30;;;;;;;30.83;20.92;;;22.20;70.30;;;;;;5144620;27;20060;-73
2021/05/18 07:10:53;;;;;;;43.22;25.05;;;22.30;69.00;;;;;;5155637;27;20057;-73
2021/05/18 07:13:20;;;;;;;38.72;24.52;;;22.40;68.50;;;;;;5156146;27;20461;-71
2021/05/18 07:15:46;;;;;;;29.15;21.58;;;22.30;68.10;;;;;;5155631;27;20026;-73
2021/05/18 07:18:12;;;;;;;32.20;20.67;;;22.10;67.90;;;;;;5155613;27;20070;-74
2021/05/18 07:20:38;;;;;;;33.72;18.23;;;22.10;67.90;;;;;;5155101;27;20033;-73
2021/05/18 07:23:09;;;;;;;36.50;18.65;;;22.00;67.80;;;;;;5155720;27;20019;-73
2021/05/18 07:25:35;;;;;;;49.58;22.38;;;22.00;67.80;;;;;;5155208;27;20080;-73
2021/05/18 07:28:06;;;;;;;54.22;22.85;;;22.10;67.60;;;;;;5155394;27;20031;-72
2021/05/18 07:30:33;;;;;;;45.03;22.08;;;22.10;67.40;;;;;;5155938;27;20061;-73
2021/05/18 07:32:59;;;;;;;32.28;18.88;;;22.10;66.90;;;;;;5155205;27;20027;-74
2021/05/18 07:35:25;;;;;;;29.80;16.65;;;22.10;66.50;;;;;;5155852;27;20026;-72
2021/05/18 07:37:51;;;;;;;32.92;16.75;;;22.00;66.20;;;;;;5155322;27;20027;-72
2021/05/18 07:40:17;;;;;;;28.58;16.13;;;22.00;66.00;;;;;;5155382;27;20019;-72
2021/05/18 07:42:42;;;;;;;42.83;23.15;;;22.00;66.10;;;;;;5155386;27;20078;-72
2021/05/18 07:45:08;;;;;;;45.72;22.98;;;22.10;66.20;;;;;;5155854;27;20023;-72
2021/05/18 07:47:37;;;;;;;39.92;21.35;;;22.10;66.10;;;;;;5155628;27;20399;-72
2021/05/18 07:50:09;;;;;;;36.78;20.17;;;22.10;66.20;;;;;;5155177;27;20392;-72
2021/05/18 08:06:16;;;;;;;15.02;10.20;;;22.40;65.30;;;;;;5155156;27;20574;-73
2021/05/18 08:08:42;;;;;;;15.07;9.35;;;22.60;65.10;;;;;;5154936;27;20126;-73
2021/05/18 08:11:08;;;;;;;11.65;7.50;;;22.80;64.20;;;;;;5155009;27;20030;-73
2021/05/18 08:13:34;;;;;;;4.90;4.35;;;23.00;63.40;;;;;;5154891;27;20462;-73
2021/05/18 09:29:44;;;;;;;10.68;7.30;;;28.70;52.80;;;;;;5157862;27;20472;-73
2021/05/18 10:22:27;;;;;;;8.43;5.80;;;30.00;50.20;;;;;;5156863;27;20023;-72
2021/05/18 10:35:31;;;;;;;11.30;6.15;;;29.90;50.50;;;;;;5156141;27;20041;-73
2021/05/18 10:38:08;;;;;;;11.82;6.25;;;30.10;50.50;;;;;;5137455;27;20037;-74
2021/05/18 10:40:36;;;;;;;8.90;5.85;;;29.90;50.40;;;;;;5154880;27;20034;-73
2021/05/18 10:43:20;;;;;;;9.70;6.13;;;29.70;50.50;;;;;;5157086;27;20038;-73
2021/05/18 10:46:01;;;;;;;16.25;8.98;;;29.90;49.70;;;;;;5156738;27;20094;-73
2021/05/18 10:48:37;;;;;;;13.05;8.43;;;30.60;47.20;;;;;;5156691;27;20034;-73
2021/05/18 10:52:00;;;;;;;17.92;10.45;;;30.60;46.10;;;;;;5156344;27;20027;-72
2021/05/18 10:54:31;;;;;;;14.70;7.88;;;30.10;45.80;;;;;;5092344;28;20103;-73
2021/05/18 10:57:01;;;;;;;9.88;6.10;;;29.60;45.80;;;;;;5092163;28;20036;-73
2021/05/18 10:59:29;;;;;;;11.02;6.00;;;29.50;46.40;;;;;;5126042;27;20034;-73
2021/05/18 11:02:17;;;;;;;12.65;6.07;;;29.80;47.20;;;;;;5156095;27;20033;-73
2021/05/18 11:05:10;;;;;;;17.33;6.80;;;30.10;48.30;;;;;;5137568;27;20031;-74
2021/05/18 11:07:36;;;;;;;10.55;6.07;;;30.00;48.40;;;;;;5149621;27;20070;-73
2021/05/18 11:10:14;;;;;;;9.48;5.88;;;29.70;48.90;;;;;;5156209;27;20079;-73
2021/05/18 11:12:41;;;;;;;14.75;7.00;;;29.30;49.50;;;;;;5156246;27;20027;-73
2021/05/18 11:15:15;;;;;;;13.68;7.63;;;28.80;50.70;;;;;;5155811;27;20468;-74
2021/05/18 11:17:49;;;;;;;9.32;6.57;;;28.40;50.90;;;;;;5155577;27;20030;-73
2021/05/18 11:20:46;;;;;;;9.75;7.15;;;28.30;51.70;;;;;;5155533;27;20083;-73
2021/05/18 11:23:27;;;;;;;8.63;6.55;;;29.00;51.60;;;;;;5155701;27;20023;-73
2021/05/18 11:26:04;;;;;;;8.75;5.93;;;29.00;50.80;;;;;;5155238;27;20027;-72
2021/05/18 11:28:33;;;;;;;10.38;6.72;;;28.60;50.70;;;;;;5155017;27;20034;-74
2021/05/18 11:31:04;;;;;;;9.65;6.55;;;28.10;51.10;;;;;;5155412;27;20076;-73
2021/05/18 11:33:31;;;;;;;8.95;6.55;;;28.10;51.80;;;;;;5155574;27;20035;-76
2021/05/18 11:36:00;;;;;;;9.73;6.13;;;28.20;51.90;;;;;;5155370;27;20027;-74
2021/05/18 11:38:28;;;;;;;7.97;5.40;;;29.20;52.30;;;;;;5155431;27;20039;-71
2021/05/18 11:40:53;;;;;;;11.93;5.88;;;30.80;51.00;;;;;;5155195;27;20103;-72
2021/05/18 11:43:24;;;;;;;6.18;4.70;;;32.40;49.00;;;;;;5155894;27;20060;-71
2021/05/18 11:46:03;;;;;;;8.18;4.85;;;32.70;47.30;;;;;;5154885;27;20079;-74
2021/05/18 11:48:29;;;;;;;15.82;5.18;;;33.70;47.00;;;;;;5155781;27;20039;-73
2021/05/18 11:51:08;;;;;;;7.25;4.80;;;35.10;45.60;;;;;;5136617;27;20402;-73
2021/05/18 11:53:40;;;;;;;9.07;4.70;;;35.90;43.30;;;;;;5155577;27;20019;-74
2021/05/18 11:56:26;;;;;;;19.08;5.43;;;35.60;42.50;;;;;;5155367;27;20030;-73
2021/05/18 11:59:19;;;;;;;8.55;4.60;;;34.80;42.40;;;;;;5155615;27;20034;-73
2021/05/18 12:02:04;;;;;;;9.57;4.47;;;33.50;43.20;;;;;;5152814;27;20035;-73
2021/05/18 12:04:31;;;;;;;15.15;5.80;;;32.70;44.30;;;;;;5155015;27;20042;-73
2021/05/18 12:07:03;;;;;;;8.70;4.32;;;32.10;45.00;;;;;;5155166;27;20039;-74
2021/05/18 12:09:34;;;;;;;21.20;6.13;;;31.40;45.50;;;;;;5154924;27;20079;-73
2021/05/18 12:12:11;;;;;;;5.07;4.45;;;30.70;46.10;;;;;;5154953;27;20058;-73
2021/05/18 12:14:47;;;;;;;6.82;4.00;;;30.00;46.70;;;;;;5155505;27;20360;-73
2021/05/18 12:17:14;;;;;;;5.65;3.85;;;29.40;46.80;;;;;;5155299;27;20079;-73
2021/05/18 12:19:40;;;;;;;6.45;3.95;;;29.00;47.60;;;;;;5154962;27;20404;-73
2021/05/18 12:22:06;;;;;;;6.75;4.55;;;29.50;47.80;;;;;;5154840;27;20052;-73
2021/05/18 12:24:38;;;;;;;4.65;4.05;;;29.50;47.30;;;;;;5154867;27;20496;-72
2021/05/18 12:27:06;;;;;;;8.75;4.90;;;28.90;47.50;;;;;;5154806;27;20034;-74
2021/05/18 12:29:35;;;;;;;12.13;5.63;;;28.10;48.40;;;;;;5154812;27;20495;-73
2021/05/18 12:32:17;;;;;;;16.02;5.43;;;27.40;49.90;;;;;;5155113;27;20026;-72
2021/05/18 12:34:43;;;;;;;8.13;5.30;;;26.90;50.90;;;;;;5154963;27;20027;-72
2021/05/18 12:37:09;;;;;;;7.43;5.30;;;26.50;51.60;;;;;;5154924;27;20026;-72
2021/05/18 12:39:43;;;;;;;12.90;5.30;;;26.10;52.10;;;;;;5154715;27;20097;-73
2021/05/18 12:42:28;;;;;;;7.32;5.43;;;25.70;52.90;;;;;;5153477;27;20480;-72
2021/05/18 12:45:00;;;;;;;8.07;6.00;;;25.20;53.60;;;;;;5154999;27;20027;-73
2021/05/18 12:47:30;;;;;;;8.90;5.85;;;24.90;54.50;;;;;;5136389;27;20117;-72
2021/05/18 12:49:56;;;;;;;13.70;5.78;;;24.60;55.10;;;;;;5154092;27;20058;-75
2021/05/18 12:52:23;;;;;;;10.50;5.60;;;24.40;55.60;;;;;;5154688;27;20030;-72
2021/05/18 12:54:54;;;;;;;6.97;5.70;;;24.20;56.20;;;;;;5154485;27;20055;-72
2021/05/18 12:57:26;;;;;;;8.07;5.50;;;24.00;56.80;;;;;;5154567;27;20460;-72
2021/05/18 13:00:04;;;;;;;8.15;5.70;;;23.90;57.20;;;;;;5154610;27;20030;-72
2021/05/18 13:02:37;;;;;;;9.73;6.35;;;23.70;57.50;;;;;;5156420;27;20109;-74
2021/05/18 13:05:07;;;;;;;8.88;5.18;;;23.60;57.80;;;;;;5157943;27;20494;-72
2021/05/18 13:07:33;;;;;;;10.63;3.67;;;23.40;57.80;;;;;;5158245;27;20034;-71
2021/05/18 13:10:14;;;;;;;7.80;3.63;;;23.10;56.40;;;;;;5158019;27;20030;-71
2021/05/18 13:12:40;;;;;;;5.95;2.80;;;22.80;55.30;;;;;;5139567;27;20026;-71
2021/05/18 13:15:12;;;;;;;4.40;2.60;;;22.40;55.10;;;;;;5158083;27;20111;-71
2021/05/18 13:17:55;;;;;;;11.32;3.20;;;21.90;56.20;;;;;;5158302;27;20038;-72
2021/05/18 13:20:22;;;;;;;3.58;2.92;;;21.50;57.50;;;;;;5158255;27;20410;-71
2021/05/18 13:22:54;;;;;;;4.63;3.03;;;21.10;58.70;;;;;;5157738;27;20023;-70
2021/05/18 13:28:04;;;;;;;3.70;2.90;;;20.40;60.40;;;;;;5157931;27;20030;-71
2021/05/18 13:30:32;;;;;;;5.63;3.65;;;20.10;61.20;;;;;;5157424;27;20638;-71
2021/05/18 13:32:58;;;;;;;19.40;9.38;;;19.90;61.70;;;;;;5157784;27;20029;-72
2021/05/18 13:35:26;;;;;;;27.52;10.93;;;19.60;61.90;;;;;;5157776;27;20417;-71
2021/05/18 13:37:52;;;;;;;27.25;10.50;;;19.40;62.50;;;;;;5157612;27;20392;-71
2021/05/18 13:40:20;;;;;;;30.67;12.13;;;19.20;63.30;;;;;;5139097;27;20452;-71
2021/05/18 13:42:50;;;;;;;34.05;13.48;;;19.00;64.60;;;;;;5158043;27;20363;-70
2021/05/18 13:45:16;;;;;;;45.90;17.80;;;18.80;65.50;;;;;;5139348;27;20426;-72
2021/05/18 13:47:41;;;;;;;49.58;18.55;;;18.60;66.40;;;;;;5157451;27;20072;-72
2021/05/18 13:50:08;;;;;;;48.58;19.27;;;18.40;67.50;;;;;;5158003;27;20079;-71
2021/05/18 13:52:34;;;;;;;44.25;16.88;;;18.10;69.10;;;;;;5157725;27;20087;-71
2021/05/18 13:54:59;;;;;;;35.25;15.65;;;17.80;70.30;;;;;;5157674;27;20015;-72
2021/05/18 13:57:25;;;;;;;37.42;14.05;;;17.60;71.60;;;;;;5157633;27;20027;-73
2021/05/18 13:59:51;;;;;;;58.65;21.77;;;17.30;72.80;;;;;;5157313;27;20062;-73
2021/05/18 14:02:19;;;;;;;86.45;27.90;;;17.20;74.40;;;;;;5157331;27;20014;-75
2021/05/18 14:04:45;;;;;;;80.68;27.23;;;17.00;76.20;;;;;;5138651;27;20436;-74
2021/05/18 14:08:03;;;;;;;95.40;29.52;;;16.80;77.50;;;;;;5156920;27;20065;-74
2021/05/18 14:10:29;;;;;;;76.20;26.00;;;16.70;78.80;;;;;;5157368;27;20117;-74
2021/05/18 14:12:54;;;;;;;76.75;23.63;;;16.60;79.60;;;;;;5156046;27;20460;-74
2021/05/18 14:15:20;;;;;;;42.65;14.45;;;16.50;80.60;;;;;;5137564;27;20071;-74
2021/05/18 14:17:46;;;;;;;32.33;12.23;;;16.50;81.60;;;;;;5157143;27;20376;-74
2021/05/18 14:20:12;;;;;;;34.72;12.27;;;16.40;82.30;;;;;;5156622;27;20110;-74
2021/05/18 14:22:38;;;;;;;42.42;13.40;;;16.40;82.90;;;;;;5138404;27;20045;-73
2021/05/18 14:25:07;;;;;;;42.20;12.10;;;16.40;83.60;;;;;;5138347;27;20102;-74
2021/05/18 14:27:35;;;;;;;40.05;12.65;;;16.50;84.20;;;;;;5156599;27;20053;-74
2021/05/18 14:30:01;;;;;;;46.40;12.85;;;16.50;84.30;;;;;;5156618;27;20026;-74
2021/05/18 14:32:27;;;;;;;56.80;15.77;;;16.50;84.60;;;;;;5137538;27;20035;-74
2021/05/18 14:34:53;;;;;;;55.13;15.50;;;16.60;85.10;;;;;;5138401;27;20031;-75
2021/05/18 14:37:19;;;;;;;59.47;15.60;;;16.60;86.30;;;;;;5156598;27;20440;-74
2021/05/18 14:40:01;;;;;;;70.00;15.93;;;16.60;85.80;;;;;;5138788;27;20026;-74
2021/05/18 14:45:13;;;;;;;50.55;15.20;;;16.70;87.50;;;;;;5156289;27;20094;-75
2021/05/18 14:55:45;;;;;;;32.53;10.63;;;17.20;87.10;;;;;;5156475;27;20577;-73
2021/05/18 14:58:14;;;;;;;29.85;11.07;;;17.20;87.10;;;;;;5155896;27;20266;-73
2021/05/18 15:00:40;;;;;;;34.53;9.73;;;17.30;86.90;;;;;;5138357;27;20027;-75
2021/05/18 15:03:05;;;;;;;14.45;7.80;;;17.40;86.50;;;;;;5137783;27;20034;-75
2021/05/18 15:05:31;;;;;;;10.20;6.35;;;17.50;86.60;;;;;;5155910;27;20460;-74
2021/05/18 15:07:57;;;;;;;11.88;6.72;;;17.50;86.80;;;;;;5155601;27;20027;-75
2021/05/18 15:10:23;;;;;;;10.93;6.05;;;17.60;87.20;;;;;;5156100;27;20027;-74
2021/05/18 15:12:49;;;;;;;6.72;5.43;;;17.80;87.10;;;;;;5155724;27;20023;-73
2021/05/18 15:15:15;;;;;;;7.07;5.95;;;18.00;86.70;;;;;;5155404;27;20030;-73
2021/05/18 15:17:41;;;;;;;9.30;4.97;;;18.20;86.70;;;;;;5155601;27;20410;-75
2021/05/18 15:20:08;;;;;;;6.28;4.57;;;18.60;87.30;;;;;;5155142;27;20038;-74
2021/05/18 15:22:34;;;;;;;5.40;3.90;;;19.30;88.10;;;;;;5155567;27;20052;-75
2021/05/18 15:25:00;;;;;;;6.43;4.13;;;20.20;88.10;;;;;;5155935;27;20102;-75
2021/05/18 15:27:26;;;;;;;12.40;5.53;;;21.10;85.60;;;;;;5155486;27;20464;-74
2021/05/18 15:29:53;;;;;;;13.55;6.00;;;22.00;82.60;;;;;;5156065;27;20418;-74
2021/05/18 15:32:19;;;;;;;7.68;4.63;;;22.70;80.00;;;;;;5155410;27;20026;-74
2021/05/18 15:34:45;;;;;;;11.63;6.30;;;23.20;76.90;;;;;;5155622;27;20033;-74
2021/05/18 15:37:12;;;;;;;14.82;9.07;;;23.20;73.80;;;;;;5155993;27;20113;-74
2021/05/18 15:39:38;;;;;;;23.80;11.27;;;22.80;72.10;;;;;;5155394;27;20452;-75
2021/05/18 15:42:04;;;;;;;20.23;7.82;;;22.50;71.90;;;;;;5155335;27;20117;-73
2021/05/18 15:44:30;;;;;;;13.95;7.45;;;22.30;72.90;;;;;;5155644;27;20155;-75
2021/05/18 15:46:56;;;;;;;9.73;5.18;;;22.20;72.90;;;;;;5155820;27;20478;-74
2021/05/18 15:49:24;;;;;;;9.45;4.75;;;22.00;72.70;;;;;;5155570;27;20440;-74
2021/05/18 15:51:50;;;;;;;5.22;3.83;;;21.90;73.60;;;;;;5136220;27;20026;-75
2021/05/18 15:54:16;;;;;;;5.55;3.78;;;21.90;74.10;;;;;;5155011;27;20026;-75
2021/05/18 15:56:41;;;;;;;6.32;4.22;;;22.00;74.10;;;;;;5156143;27;20034;-74
2021/05/18 15:59:07;;;;;;;7.72;3.40;;;22.20;74.00;;;;;;5155232;27;20023;-74
2021/05/18 16:01:33;;;;;;;3.85;3.53;;;22.10;72.90;;;;;;5155205;27;20034;-74
2021/05/18 16:03:58;;;;;;;4.20;3.20;;;21.90;72.20;;;;;;5154989;27;20019;-75
2021/05/18 16:06:24;;;;;;;4.95;3.40;;;21.60;72.50;;;;;;5155602;27;20105;-75
2021/05/18 16:11:16;;;;;;;3.38;3.10;;;21.20;73.20;;;;;;5154992;27;20037;-74
2021/05/18 16:13:42;;;;;;;6.70;3.53;;;21.00;73.70;;;;;;5153524;27;20027;-74
2021/05/18 16:16:17;;;;;;;4.82;3.80;;;20.90;73.80;;;;;;5155144;27;20038;-74
2021/05/18 16:18:43;;;;;;;5.15;3.75;;;20.60;73.90;;;;;;5154962;27;20109;-73
2021/05/18 16:21:12;;;;;;;4.43;3.83;;;20.40;74.70;;;;;;5154816;27;20027;-73
2021/05/18 16:23:40;;;;;;;8.40;4.00;;;20.10;75.30;;;;;;5154838;27;20065;-74
2021/05/18 16:26:07;;;;;;;4.50;4.10;;;19.90;76.00;;;;;;5155327;27;20064;-74
2021/05/18 16:28:33;;;;;;;5.20;4.00;;;19.70;77.30;;;;;;5154756;27;20030;-74
2021/05/18 16:31:00;;;;;;;5.38;4.35;;;19.50;77.40;;;;;;5154477;27;20026;-74
2021/05/18 16:33:27;;;;;;;4.88;4.45;;;19.30;77.80;;;;;;5154757;27;20034;-74
2021/05/18 16:35:53;;;;;;;5.28;4.43;;;19.20;78.30;;;;;;5154971;27;20042;-74
2021/05/18 16:38:19;;;;;;;6.43;4.30;;;19.00;78.80;;;;;;5156827;27;20113;-74
2021/05/18 16:40:45;;;;;;;7.22;4.38;;;18.90;79.40;;;;;;5158979;27;20489;-74
2021/05/18 16:43:11;;;;;;;5.53;4.25;;;18.80;80.00;;;;;;5159723;27;20037;-74
2021/05/18 16:45:37;;;;;;;7.05;4.68;;;18.70;80.40;;;;;;5158471;27;20487;-73
2021/05/18 16:48:04;;;;;;;6.05;4.20;;;18.70;80.80;;;;;;5158896;27;20105;-74
2021/05/18 16:50:31;;;;;;;6.93;4.43;;;18.60;81.00;;;;;;5140121;27;20033;-73
2021/05/18 16:52:56;;;;;;;6.47;4.45;;;18.40;81.40;;;;;;5158720;27;20101;-73
2021/05/18 16:55:23;;;;;;;6.25;4.50;;;18.40;81.70;;;;;;5158225;27;20045;-73
2021/05/18 16:57:49;;;;;;;6.40;4.75;;;18.30;82.10;;;;;;5158859;27;20030;-73
2021/05/18 17:00:16;;;;;;;9.68;5.35;;;18.20;82.40;;;;;;5159081;27;20456;-73
2021/05/18 17:02:41;;;;;;;9.55;5.63;;;18.10;82.60;;;;;;5159143;27;20444;-73
2021/05/18 17:05:08;;;;;;;8.55;5.30;;;18.10;83.00;;;;;;5158449;27;20034;-74
2021/05/18 17:07:34;;;;;;;8.60;5.90;;;18.00;83.20;;;;;;5158155;27;20038;-75
2021/05/18 17:10:01;;;;;;;10.02;5.47;;;17.90;83.80;;;;;;5158327;27;20019;-75
2021/05/18 17:12:26;;;;;;;8.43;5.75;;;17.90;84.10;;;;;;5158074;27;20038;-74
2021/05/18 17:14:52;;;;;;;9.95;6.03;;;17.80;84.50;;;;;;5157947;27;20024;-74
2021/05/18 17:17:18;;;;;;;7.70;5.20;;;17.80;84.50;;;;;;5158104;27;20456;-74
2021/05/18 17:19:45;;;;;;;9.90;5.10;;;17.70;84.80;;;;;;5158174;27;20479;-75
2021/05/18 17:22:13;;;;;;;6.10;5.50;;;17.70;84.90;;;;;;5158524;27;20128;-73
2021/05/18 17:24:39;;;;;;;10.30;5.30;;;17.70;84.90;;;;;;5158532;27;20462;-73
2021/05/18 17:27:06;;;;;;;5.57;5.07;;;17.60;85.00;;;;;;5158111;27;20022;-73
2021/05/18 17:29:32;;;;;;;5.05;4.55;;;17.60;85.10;;;;;;5157862;27;20030;-73
2021/05/18 17:31:59;;;;;;;6.10;5.47;;;17.60;85.20;;;;;;5157496;27;20516;-73
2021/05/18 17:34:25;;;;;;;6.30;5.18;;;17.50;85.60;;;;;;5157493;27;20102;-73